Time;durP1;ratioP1;P1;durP2;ratioP2;P2;SDS_P1;SDS_P2;PMS_P1;PMS_P2;Temp;Humidity;BMP_temperature;BMP_pressure;BME280_temperature;BME280_humidity;BME280_pressure;Samples;Min_cycle;Max_cycle;Signal;HPM_P1;HPM_P2
2024/04/11 00:01:02;;;;;;;;;;;;;;;6.66;97.62;99238.91;5435032;26;20362;-49
2024/04/11 00:03:27;;;;;;;;;;;;;;;6.67;98.26;99244.91;5444869;26;20022;-48
2024/04/11 00:05:55;;;;;;;;;;;;;;;6.86;99.22;99243.63;5432590;26;19960;-49
2024/04/11 00:08:20;;;;;;;;;;;;;;;6.80;99.51;99246.34;5450928;26;19994;-49
2024/04/11 00:10:46;;;;;;;;;;;;;;;6.80;99.89;99241.19;5436816;26;19973;-49
2024/04/11 00:13:11;;;;;;;;;;;;;;;6.79;99.18;99240.34;5441065;26;19948;-50
2024/04/11 00:15:36;;;;;;;;;;;;;;;6.56;99.27;99236.53;5441356;26;19929;-51
2024/04/11 00:18:02;;;;;;;;;;;;;;;6.62;100.00;99237.25;5446043;26;19933;-51
2024/04/11 00:20:27;;;;;;;;;;;;;;;6.66;99.62;99232.88;5431933;26;20001;-50
2024/04/11 00:22:52;;;;;;;;;;;;;;;6.58;98.60;99227.88;5439361;26;19969;-50
2024/04/11 00:25:18;;;;;;;;;;;;;;;6.70;97.91;99221.59;5440537;26;19990;-50
2024/04/11 00:27:43;;;;;;;;;;;;;;;6.58;98.46;99209.78;5434583;26;20027;-49
2024/04/11 00:30:09;;;;;;;;;;;;;;;6.53;98.17;99206.41;5434507;26;19939;-50
2024/04/11 00:32:34;;;;;;;;;;;;;;;6.47;98.31;99201.38;5452983;26;19966;-49
2024/04/11 00:35:01;;;;;;;;;;;;;;;6.44;100.00;99216.97;5430624;26;20125;-52
2024/04/11 00:37:31;;;;;;;;;;;;;;;6.42;100.00;99221.28;5426190;26;20218;-49
2024/04/11 00:39:56;;;;;;;;;;;;;;;6.29;100.00;99216.41;5441309;26;19969;-49
2024/04/11 00:42:22;;;;;;;;;;;;;;;6.30;99.65;99208.59;5445172;26;19988;-50
2024/04/11 00:44:48;;;;;;;;;;;;;;;6.38;98.56;99208.47;5433690;26;19971;-49
2024/04/11 00:47:13;;;;;;;;;;;;;;;6.35;98.90;99204.19;5436371;26;19972;-49
2024/04/11 00:49:39;;;;;;;;;;;;;;;6.39;98.27;99208.44;5450258;26;19983;-49
2024/04/11 00:52:06;;;;;;;;;;;;;;;6.37;97.96;99210.19;5442768;26;20059;-49
2024/04/11 00:54:31;;;;;;;;;;;;;;;6.27;98.34;99200.06;5441877;26;20055;-49
2024/04/11 00:56:59;;;;;;;;;;;;;;;6.12;99.32;99188.31;5422294;26;19975;-50
2024/04/11 00:59:25;;;;;;;;;;;;;;;6.28;98.28;99201.78;5436527;26;20029;-50
2024/04/11 01:01:51;;;;;;;;;;;;;;;6.28;98.72;99205.22;5433201;26;20277;-50
2024/04/11 01:04:16;;;;;;;;;;;;;;;6.20;99.24;99191.59;5446342;26;19929;-49
2024/04/11 01:07:02;;;;;;;;;;;;;;;6.11;99.70;99191.78;5446671;26;19990;-49
2024/04/11 01:09:27;;;;;;;;;;;;;;;6.29;99.09;99200.91;5447115;26;19940;-49
2024/04/11 01:11:52;;;;;;;;;;;;;;;6.06;100.00;99198.78;5440935;26;19935;-49
2024/04/11 01:14:17;;;;;;;;;;;;;;;6.06;100.00;99188.44;5451827;26;19992;-49
2024/04/11 01:16:43;;;;;;;;;;;;;;;6.09;100.00;99177.19;5434705;26;19987;-49
2024/04/11 01:19:08;;;;;;;;;;;;;;;6.01;100.00;99179.91;5429917;26;19962;-50
2024/04/11 01:21:33;;;;;;;;;;;;;;;6.02;100.00;99181.59;5436696;26;20019;-49
2024/04/11 01:23:58;;;;;;;;;;;;;;;5.92;100.00;99187.84;5424379;26;20054;-48
2024/04/11 01:26:24;;;;;;;;;;;;;;;6.00;100.00;99185.97;5440525;26;19990;-50
2024/04/11 01:28:51;;;;;;;;;;;;;;;5.88;100.00;99180.19;5436381;26;19981;-50
2024/04/11 01:31:17;;;;;;;;;;;;;;;5.97;100.00;99183.41;5435239;26;19937;-50
2024/04/11 01:33:44;;;;;;;;;;;;;;;5.92;100.00;99190.44;5422861;26;20287;-49
2024/04/11 01:36:10;;;;;;;;;;;;;;;6.01;100.00;99190.25;5436681;26;19969;-51
2024/04/11 01:38:35;;;;;;;;;;;;;;;5.91;100.00;99188.72;5431996;26;19928;-50
2024/04/11 01:41:01;;;;;;;;;;;;;;;5.70;100.00;99204.56;5438766;26;20019;-49
2024/04/11 01:43:26;;;;;;;;;;;;;;;6.04;100.00;99205.66;5439231;26;20050;-51
2024/04/11 01:45:52;;;;;;;;;;;;;;;5.82;100.00;99206.97;5440204;26;19963;-49
2024/04/11 01:48:17;;;;;;;;;;;;;;;5.68;100.00;99200.28;5437796;26;19935;-49
2024/04/11 01:50:43;;;;;;;;;;;;;;;5.64;100.00;99209.00;5440516;26;19948;-49
2024/04/11 01:53:08;;;;;;;;;;;;;;;5.52;100.00;99210.06;5433012;26;19966;-49
2024/04/11 01:55:33;;;;;;;;;;;;;;;5.52;100.00;99204.91;5437670;26;19974;-50
2024/04/11 01:58:01;;;;;;;;;;;;;;;5.31;100.00;99205.25;5444743;26;19979;-50
2024/04/11 02:00:27;;;;;;;;;;;;;;;5.41;100.00;99209.38;5450428;26;20466;-50
2024/04/11 02:02:54;;;;;;;;;;;;;;;5.39;100.00;99200.81;5435401;26;20040;-50
2024/04/11 02:05:20;;;;;;;;;;;;;;;5.38;100.00;99200.84;5440177;26;19928;-48
2024/04/11 02:07:45;;;;;;;;;;;;;;;5.48;100.00;99192.91;5439377;26;19929;-49
2024/04/11 02:10:11;;;;;;;;;;;;;;;5.76;100.00;99206.19;5435787;26;19989;-50
2024/04/11 02:12:37;;;;;;;;;;;;;;;5.42;100.00;99198.16;5437919;26;19989;-49
2024/04/11 02:15:06;;;;;;;;;;;;;;;5.67;100.00;99202.03;5437186;26;19936;-50
2024/04/11 02:17:32;;;;;;;;;;;;;;;5.27;100.00;99193.28;5423046;26;20271;-49
2024/04/11 02:19:59;;;;;;;;;;;;;;;5.54;100.00;99200.56;5437620;26;20004;-50
2024/04/11 02:22:24;;;;;;;;;;;;;;;5.36;100.00;99197.44;5426742;26;20050;-49
2024/04/11 02:24:50;;;;;;;;;;;;;;;5.32;100.00;99194.06;5442809;26;19989;-51
2024/04/11 02:27:15;;;;;;;;;;;;;;;5.60;100.00;99199.59;5446611;26;19989;-49
2024/04/11 02:29:40;;;;;;;;;;;;;;;5.59;100.00;99198.75;5447188;26;20377;-49
2024/04/11 02:32:06;;;;;;;;;;;;;;;5.46;100.00;99207.59;5451776;26;19967;-49
2024/04/11 02:34:32;;;;;;;;;;;;;;;5.36;100.00;99198.28;5428206;26;19929;-49
2024/04/11 02:36:58;;;;;;;;;;;;;;;5.04;100.00;99200.50;5432478;26;19985;-49
2024/04/11 02:39:24;;;;;;;;;;;;;;;4.90;100.00;99211.06;5435931;26;20043;-49
2024/04/11 02:41:51;;;;;;;;;;;;;;;5.19;100.00;99220.94;5446188;26;19985;-49
2024/04/11 02:44:19;;;;;;;;;;;;;;;5.06;100.00;99222.88;5445604;26;19968;-49
2024/04/11 02:46:45;;;;;;;;;;;;;;;4.93;100.00;99221.34;5450756;26;19932;-50
2024/04/11 02:49:11;;;;;;;;;;;;;;;4.99;100.00;99211.78;5450147;26;19944;-50
2024/04/11 02:51:37;;;;;;;;;;;;;;;5.08;100.00;99225.38;5434501;26;19980;-49
2024/04/11 02:54:05;;;;;;;;;;;;;;;5.15;100.00;99224.41;5426441;26;19970;-50
2024/04/11 02:56:31;;;;;;;;;;;;;;;5.13;100.00;99224.47;5438637;26;20255;-48
2024/04/11 02:58:57;;;;;;;;;;;;;;;5.17;100.00;99227.81;5440297;26;19969;-48
2024/04/11 03:01:22;;;;;;;;;;;;;;;5.24;100.00;99237.16;5446619;26;20054;-49
2024/04/11 03:03:47;;;;;;;;;;;;;;;5.23;100.00;99232.88;5437813;26;20029;-48
2024/04/11 03:06:17;;;;;;;;;;;;;;;5.09;100.00;99234.81;5440053;26;19968;-48
2024/04/11 03:08:42;;;;;;;;;;;;;;;5.18;100.00;99244.16;5441921;26;20257;-48
2024/04/11 03:11:07;;;;;;;;;;;;;;;5.00;100.00;99243.59;5443545;26;20029;-48
2024/04/11 03:13:33;;;;;;;;;;;;;;;4.96;100.00;99241.91;5449402;26;20006;-49
2024/04/11 03:15:59;;;;;;;;;;;;;;;4.94;100.00;99241.09;5442395;26;20033;-48
2024/04/11 03:18:25;;;;;;;;;;;;;;;5.23;100.00;99244.97;5433404;26;19933;-49
2024/04/11 03:20:54;;;;;;;;;;;;;;;4.81;100.00;99247.28;5439221;26;19972;-48
2024/04/11 03:23:19;;;;;;;;;;;;;;;4.96;100.00;99247.94;5442254;26;19969;-48
2024/04/11 03:25:44;;;;;;;;;;;;;;;5.07;100.00;99252.06;5438770;26;19933;-48
2024/04/11 03:28:10;;;;;;;;;;;;;;;4.84;100.00;99248.09;5433841;26;19929;-48
2024/04/11 03:30:36;;;;;;;;;;;;;;;4.78;100.00;99237.00;5434525;26;19971;-50
2024/04/11 03:33:01;;;;;;;;;;;;;;;4.79;100.00;99241.31;5447202;26;19939;-49
2024/04/11 03:35:26;;;;;;;;;;;;;;;4.91;100.00;99243.69;5437582;26;20298;-49
2024/04/11 03:37:51;;;;;;;;;;;;;;;4.78;100.00;99250.75;5435169;26;19928;-49
2024/04/11 03:40:16;;;;;;;;;;;;;;;4.77;100.00;99245.63;5441038;26;20272;-48
2024/04/11 03:42:42;;;;;;;;;;;;;;;4.75;100.00;99237.06;5429554;26;19982;-48
2024/04/11 03:45:11;;;;;;;;;;;;;;;4.61;100.00;99238.97;5438250;26;19929;-48
2024/04/11 03:47:37;;;;;;;;;;;;;;;4.56;100.00;99243.31;5448547;26;20243;-48
2024/04/11 03:50:03;;;;;;;;;;;;;;;4.74;100.00;99250.81;5433183;26;19963;-49
2024/04/11 03:52:29;;;;;;;;;;;;;;;4.76;100.00;99244.78;5442186;26;19964;-48
2024/04/11 03:54:56;;;;;;;;;;;;;;;4.65;100.00;99249.22;5448272;26;20401;-49
2024/04/11 03:57:21;;;;;;;;;;;;;;;4.64;100.00;99251.81;5440406;26;20008;-49
2024/04/11 03:59:46;;;;;;;;;;;;;;;4.80;100.00;99245.59;5437028;26;19992;-48
2024/04/11 04:02:11;;;;;;;;;;;;;;;4.61;100.00;99244.13;5436719;26;20058;-49
2024/04/11 04:04:37;;;;;;;;;;;;;;;4.64;100.00;99249.22;5440495;26;19962;-49
2024/04/11 04:07:02;;;;;;;;;;;;;;;4.50;100.00;99251.13;5431893;26;19990;-49
2024/04/11 04:09:27;;;;;;;;;;;;;;;4.81;100.00;99255.03;5443359;26;19943;-50
2024/04/11 04:11:53;;;;;;;;;;;;;;;4.74;100.00;99246.50;5446976;26;20463;-50
2024/04/11 04:14:18;;;;;;;;;;;;;;;4.53;100.00;99251.09;5435019;26;19932;-51
2024/04/11 04:16:44;;;;;;;;;;;;;;;4.43;100.00;99254.66;5438582;26;20057;-51
2024/04/11 04:19:09;;;;;;;;;;;;;;;4.41;100.00;99262.38;5437898;26;19966;-49
2024/04/11 04:21:35;;;;;;;;;;;;;;;4.33;100.00;99263.38;5433888;26;19971;-49
2024/04/11 04:24:05;;;;;;;;;;;;;;;4.30;100.00;99269.41;5442004;26;20088;-49
2024/04/11 04:26:30;;;;;;;;;;;;;;;4.67;100.00;99264.66;5434284;26;20414;-50
2024/04/11 04:28:56;;;;;;;;;;;;;;;4.28;100.00;99265.97;5438559;26;20014;-49
2024/04/11 04:31:25;;;;;;;;;;;;;;;4.34;100.00;99275.38;5442644;26;19991;-49
2024/04/11 04:33:52;;;;;;;;;;;;;;;4.23;100.00;99274.63;5442941;26;19959;-49
2024/04/11 04:36:26;;;;;;;;;;;;;;;4.29;100.00;99274.56;5441142;26;19967;-48
2024/04/11 04:38:51;;;;;;;;;;;;;;;4.48;100.00;99276.06;5442377;26;19963;-51
2024/04/11 04:41:17;;;;;;;;;;;;;;;4.44;100.00;99276.97;5437685;26;19970;-48
2024/04/11 04:43:43;;;;;;;;;;;;;;;4.29;100.00;99287.44;5438460;26;20060;-49
2024/04/11 04:46:09;;;;;;;;;;;;;;;4.20;100.00;99287.56;5431839;26;20335;-49
2024/04/11 04:48:34;;;;;;;;;;;;;;;4.55;100.00;99290.59;5446662;26;19978;-49
2024/04/11 04:50:59;;;;;;;;;;;;;;;4.47;100.00;99298.41;5434145;26;19966;-49
2024/04/11 04:53:29;;;;;;;;;;;;;;;4.50;100.00;99294.94;5439070;26;19968;-50
2024/04/11 04:55:55;;;;;;;;;;;;;;;4.48;100.00;99294.09;5451551;26;20403;-51
2024/04/11 04:58:20;;;;;;;;;;;;;;;4.56;100.00;99297.44;5443154;26;19928;-49
2024/04/11 05:00:50;;;;;;;;;;;;;;;4.68;100.00;99302.47;5451203;26;19977;-49
2024/04/11 05:03:16;;;;;;;;;;;;;;;4.50;100.00;99300.09;5441275;26;19966;-49
2024/04/11 05:05:41;;;;;;;;;;;;;;;4.58;100.00;99311.16;5443092;26;19965;-49
2024/04/11 05:08:07;;;;;;;;;;;;;;;4.90;100.00;99314.22;5439403;26;20050;-48
2024/04/11 05:10:37;;;;;;;;;;;;;;;4.97;100.00;99321.00;5440530;26;19963;-48
2024/04/11 05:13:09;;;;;;;;;;;;;;;5.04;100.00;99319.16;5438666;26;19982;-50
2024/04/11 05:15:35;;;;;;;;;;;;;;;4.92;100.00;99327.94;5438849;26;20762;-50
2024/04/11 05:18:01;;;;;;;;;;;;;;;4.99;100.00;99332.16;5444267;26;20006;-50
2024/04/11 05:20:27;;;;;;;;;;;;;;;5.25;100.00;99328.34;5440183;26;20289;-51
2024/04/11 05:22:52;;;;;;;;;;;;;;;5.41;100.00;99333.28;5433624;26;19933;-50
2024/04/11 05:25:18;;;;;;;;;;;;;;;5.24;100.00;99332.63;5438613;26;20388;-51
2024/04/11 05:27:43;;;;;;;;;;;;;;;5.27;100.00;99332.63;5436215;26;19993;-49
2024/04/11 05:30:12;;;;;;;;;;;;;;;5.76;100.00;99338.75;5440578;26;20007;-49
2024/04/11 05:32:37;;;;;;;;;;;;;;;5.82;100.00;99333.53;5437794;26;20012;-50
2024/04/11 05:35:06;;;;;;;;;;;;;;;6.09;100.00;99332.22;5434759;26;19967;-49
2024/04/11 05:37:31;;;;;;;;;;;;;;;6.11;99.92;99326.16;5431251;26;20143;-50
2024/04/11 05:39:59;;;;;;;;;;;;;;;6.23;100.00;99332.84;5432670;26;19944;-50
2024/04/11 05:42:25;;;;;;;;;;;;;;;6.39;99.72;99329.94;5438860;26;20276;-49
2024/04/11 05:44:50;;;;;;;;;;;;;;;6.59;98.66;99335.59;5439438;26;19970;-47
2024/04/11 05:47:19;;;;;;;;;;;;;;;6.74;97.49;99329.25;5441039;26;20456;-48
2024/04/11 05:49:44;;;;;;;;;;;;;;;6.93;95.71;99335.78;5441076;26;19962;-48
2024/04/11 05:52:09;;;;;;;;;;;;;;;6.78;94.87;99336.94;5435814;26;19936;-48
2024/04/11 05:54:34;;;;;;;;;;;;;;;7.34;94.43;99341.78;5435719;26;19989;-49
2024/04/11 05:57:00;;;;;;;;;;;;;;;7.64;93.89;99328.16;5448712;26;19935;-50
2024/04/11 05:59:25;;;;;;;;;;;;;;;7.81;91.89;99331.19;5442210;26;20019;-49
2024/04/11 06:01:50;;;;;;;;;;;;;;;8.06;89.78;99340.06;5438860;26;20385;-49
2024/04/11 06:04:16;;;;;;;;;;;;;;;8.17;88.15;99340.66;5447877;26;19983;-49
2024/04/11 06:06:41;;;;;;;;;;;;;;;8.23;86.34;99335.34;5434852;26;20323;-48
2024/04/11 06:09:08;;;;;;;;;;;;;;;8.45;84.86;99336.50;5439597;26;19936;-49
2024/04/11 06:11:33;;;;;;;;;;;;;;;8.41;84.49;99349.59;5445717;26;20022;-50
2024/04/11 06:13:58;;;;;;;;;;;;;;;8.60;83.82;99351.66;5439051;26;20349;-50
2024/04/11 06:16:24;;;;;;;;;;;;;;;8.88;82.23;99344.81;5435956;26;20002;-49
2024/04/11 06:18:50;;;;;;;;;;;;;;;9.08;81.63;99345.09;5438958;26;19973;-51
2024/04/11 06:21:18;;;;;;;;;;;;;;;9.18;81.58;99346.53;5439145;26;20055;-49
2024/04/11 06:23:44;;;;;;;;;;;;;;;9.66;79.82;99355.47;5451477;26;19933;-50
2024/04/11 06:26:14;;;;;;;;;;;;;;;9.90;78.83;99359.91;5450763;26;19929;-49
2024/04/11 06:28:39;;;;;;;;;;;;;;;10.72;75.41;99363.22;5428797;26;19929;-48
2024/04/11 06:31:05;;;;;;;;;;;;;;;12.21;71.57;99356.56;5434004;26;20378;-49
2024/04/11 06:33:31;;;;;;;;;;;;;;;13.21;66.70;99364.41;5428742;26;19979;-49
2024/04/11 06:35:58;;;;;;;;;;;;;;;13.51;63.27;99363.88;5434996;26;20328;-51
2024/04/11 06:38:24;;;;;;;;;;;;;;;14.07;61.17;99361.19;5437017;26;20030;-50
2024/04/11 06:40:50;;;;;;;;;;;;;;;14.62;60.01;99362.81;5440050;26;19928;-49
2024/04/11 06:43:16;;;;;;;;;;;;;;;14.69;59.33;99366.84;5441200;26;19936;-51
2024/04/11 06:45:43;;;;;;;;;;;;;;;14.22;60.03;99360.50;5440164;26;19943;-49
2024/04/11 06:48:08;;;;;;;;;;;;;;;14.92;60.29;99366.47;5440228;26;20057;-50
2024/04/11 06:50:34;;;;;;;;;;;;;;;14.85;60.74;99367.72;5438104;26;19977;-50
2024/04/11 06:52:59;;;;;;;;;;;;;;;13.61;61.18;99369.53;5440007;26;19928;-50
2024/04/11 06:55:25;;;;;;;;;;;;;;;13.11;63.94;99368.38;5437435;26;20282;-50
2024/04/11 06:57:52;;;;;;;;;;;;;;;13.67;63.87;99369.25;5444517;26;19929;-50
2024/04/11 07:00:35;;;;;;;;;;;;;;;13.03;64.10;99367.88;5444428;26;19995;-49
2024/04/11 07:03:02;;;;;;;;;;;;;;;13.89;63.03;99364.72;5434650;26;19993;-49
2024/04/11 07:05:28;;;;;;;;;;;;;;;13.44;62.65;99372.09;5436983;26;20011;-50
2024/04/11 07:07:59;;;;;;;;;;;;;;;13.40;63.79;99371.38;5422791;26;19994;-50
2024/04/11 07:10:24;;;;;;;;;;;;;;;14.11;61.70;99370.59;5445372;26;19967;-47
2024/04/11 07:12:53;;;;;;;;;;;;;;;14.27;60.76;99367.19;5443112;26;20306;-48
2024/04/11 07:15:23;;;;;;;;;;;;;;;14.10;60.50;99363.66;5444902;26;20059;-47
2024/04/11 07:17:57;;;;;;;;;;;;;;;14.72;60.24;99358.81;5433460;26;19951;-47
2024/04/11 07:20:25;;;;;;;;;;;;;;;15.68;58.03;99369.38;5431919;26;19940;-48
2024/04/11 07:22:54;;;;;;;;;;;;;;;15.01;57.71;99364.22;5428995;26;20017;-48
2024/04/11 07:25:19;;;;;;;;;;;;;;;14.80;58.23;99362.72;5429724;26;19963;-48
2024/04/11 07:27:46;;;;;;;;;;;;;;;16.15;56.91;99364.97;5435925;26;20284;-48
2024/04/11 07:30:11;;;;;;;;;;;;;;;16.80;55.37;99370.75;5436131;26;19979;-47
2024/04/11 07:32:40;;;;;;;;;;;;;;;16.04;55.78;99375.22;5439811;26;19928;-47
2024/04/11 07:35:05;;;;;;;;;;;;;;;16.74;55.36;99380.75;5442373;26;19936;-48
2024/04/11 07:37:32;;;;;;;;;;;;;;;17.28;54.27;99384.44;5437635;26;20815;-48
2024/04/11 07:40:00;;;;;;;;;;;;;;;16.95;53.16;99379.50;5449680;26;20360;-48
2024/04/11 07:42:48;;;;;;;;;;;;;;;19.43;50.79;99386.84;5434795;26;19929;-49
2024/04/11 07:45:17;;;;;;;;;;;;;;;22.09;44.83;99391.19;5434142;26;20408;-48
2024/04/11 07:47:43;;;;;;;;;;;;;;;22.76;43.66;99395.34;5424905;26;19987;-48
2024/04/11 07:50:10;;;;;;;;;;;;;;;22.90;41.93;99396.84;5426983;26;20012;-48
2024/04/11 07:52:37;;;;;;;;;;;;;;;23.70;41.70;99396.91;5434417;26;19929;-49
2024/04/11 07:55:03;;;;;;;;;;;;;;;24.52;40.21;99388.63;5439388;26;20230;-49
2024/04/11 07:57:28;;;;;;;;;;;;;;;24.40;40.03;99395.03;5436421;26;19966;-49
2024/04/11 07:59:55;;;;;;;;;;;;;;;24.67;39.59;99385.41;5430823;26;19974;-50
2024/04/11 08:02:21;;;;;;;;;;;;;;;22.97;40.60;99382.09;5426574;26;19957;-49
2024/04/11 08:04:46;;;;;;;;;;;;;;;23.54;40.89;99377.97;5437528;26;19936;-49
2024/04/11 08:07:11;;;;;;;;;;;;;;;24.65;39.03;99383.88;5440615;26;20327;-48
2024/04/11 08:09:44;;;;;;;;;;;;;;;25.02;38.87;99382.16;5447212;26;20268;-48
2024/04/11 08:12:09;;;;;;;;;;;;;;;25.90;37.93;99387.00;5428619;26;19993;-50
2024/04/11 08:14:34;;;;;;;;;;;;;;;24.93;38.37;99388.34;5432075;26;19933;-49
2024/04/11 08:17:00;;;;;;;;;;;;;;;26.17;37.05;99388.78;5432376;26;19933;-48
2024/04/11 08:19:25;;;;;;;;;;;;;;;26.91;36.21;99374.22;5433105;26;19962;-48
2024/04/11 08:21:50;;;;;;;;;;;;;;;27.13;35.55;99384.41;5448575;26;19943;-49
2024/04/11 08:24:15;;;;;;;;;;;;;;;27.94;35.38;99386.59;5447148;26;19968;-49
2024/04/11 08:26:41;;;;;;;;;;;;;;;27.47;35.33;99383.47;5436353;26;19972;-49
2024/04/11 08:29:06;;;;;;;;;;;;;;;28.58;34.31;99389.50;5436401;26;20261;-49
2024/04/11 08:31:32;;;;;;;;;;;;;;;28.41;34.47;99395.81;5443998;26;20258;-49
2024/04/11 08:33:58;;;;;;;;;;;;;;;28.98;33.50;99398.44;5442111;26;19977;-49
2024/04/11 08:36:23;;;;;;;;;;;;;;;30.00;32.40;99399.44;5444283;26;19984;-49
2024/04/11 08:38:48;;;;;;;;;;;;;;;28.93;32.97;99402.59;5434003;26;19960;-49
2024/04/11 08:41:15;;;;;;;;;;;;;;;28.11;33.54;99393.72;5436776;26;20393;-50
2024/04/11 08:43:40;;;;;;;;;;;;;;;30.18;32.72;99403.56;5430440;26;19990;-49
2024/04/11 08:46:09;;;;;;;;;;;;;;;29.55;32.00;99401.94;5439183;26;19929;-48
2024/04/11 08:48:35;;;;;;;;;;;;;;;29.81;31.29;99399.84;5438793;26;20015;-48
2024/04/11 08:51:03;;;;;;;;;;;;;;;29.73;31.61;99407.94;5427132;26;19966;-48
2024/04/11 08:53:32;;;;;;;;;;;;;;;30.71;31.28;99400.94;5449042;26;19944;-48
2024/04/11 08:55:59;;;;;;;;;;;;;;;30.29;31.86;99400.50;5451742;26;20227;-50
2024/04/11 08:58:25;;;;;;;;;;;;;;;29.32;32.37;99398.25;5446802;26;19958;-50
2024/04/11 09:00:51;;;;;;;;;;;;;;;23.56;39.18;99386.63;5432470;26;19988;-49
2024/04/11 09:03:17;;;;;;;;;;;;;;;22.49;40.88;99379.03;5430806;26;19990;-50
2024/04/11 09:05:44;;;;;;;;;;;;;;;22.62;42.21;99384.16;5443851;26;20259;-49
2024/04/11 09:08:11;;;;;;;;;;;;;;;22.93;42.01;99384.16;5435328;26;19929;-51
2024/04/11 09:10:37;;;;;;;;;;;;;;;22.13;42.36;99389.13;5444937;26;20025;-49
2024/04/11 09:13:02;;;;;;;;;;;;;;;22.57;41.91;99389.88;5436345;26;19961;-50
2024/04/11 09:15:27;;;;;;;;;;;;;;;22.57;42.21;99383.72;5444809;26;19943;-49
2024/04/11 09:17:55;;;;;;;;;;;;;;;22.82;42.25;99388.66;5449255;26;19971;-48
2024/04/11 09:20:24;;;;;;;;;;;;;;;22.39;42.82;99386.06;5442550;26;19940;-49
2024/04/11 09:22:51;;;;;;;;;;;;;;;23.17;42.42;99384.75;5432744;26;19968;-49
2024/04/11 09:25:17;;;;;;;;;;;;;;;23.67;42.07;99383.03;5437994;26;20032;-51
2024/04/11 09:27:50;;;;;;;;;;;;;;;22.22;41.96;99383.94;5432886;26;19991;-49
2024/04/11 09:30:17;;;;;;;;;;;;;;;23.80;40.97;99389.81;5447481;26;20385;-52
2024/04/11 09:32:44;;;;;;;;;;;;;;;23.81;40.65;99388.84;5444465;26;20003;-50
2024/04/11 09:35:12;;;;;;;;;;;;;;;22.67;41.77;99389.94;5435094;26;19966;-49
2024/04/11 09:37:39;;;;;;;;;;;;;;;22.64;42.00;99383.06;5437458;26;20439;-49
2024/04/11 09:40:11;;;;;;;;;;;;;;;22.85;40.82;99380.44;5448585;26;19929;-51
2024/04/11 09:42:39;;;;;;;;;;;;;;;22.64;41.28;99380.41;5438741;26;19963;-49
2024/04/11 09:45:10;;;;;;;;;;;;;;;23.78;40.03;99386.44;5437419;26;19966;-49
2024/04/11 09:47:38;;;;;;;;;;;;;;;23.36;40.52;99384.84;5446916;26;19966;-49
2024/04/11 09:50:04;;;;;;;;;;;;;;;23.12;40.50;99386.09;5448939;26;19963;-49
2024/04/11 09:52:34;;;;;;;;;;;;;;;22.81;39.71;99382.53;5430116;26;19944;-49
2024/04/11 09:55:04;;;;;;;;;;;;;;;23.50;39.25;99381.84;5433269;26;19945;-48
2024/04/11 09:57:33;;;;;;;;;;;;;;;24.10;38.06;99393.31;5442993;26;20315;-50
2024/04/11 10:00:01;;;;;;;;;;;;;;;25.47;37.53;99384.03;5448500;26;20582;-50
2024/04/11 10:02:28;;;;;;;;;;;;;;;26.09;36.96;99399.38;5437616;26;20384;-49
2024/04/11 10:04:57;;;;;;;;;;;;;;;24.07;37.30;99387.41;5428918;26;19936;-49
2024/04/11 10:07:25;;;;;;;;;;;;;;;24.35;37.17;99392.81;5438246;26;20481;-49
2024/04/11 10:09:52;;;;;;;;;;;;;;;24.98;37.06;99396.75;5443000;26;19956;-49
2024/04/11 10:12:19;;;;;;;;;;;;;;;25.45;36.39;99396.69;5429691;26;20045;-49
2024/04/11 10:15:06;;;;;;;;;;;;;;;25.70;36.27;99396.03;5437017;26;19968;-49
2024/04/11 10:17:36;;;;;;;;;;;;;;;22.71;36.52;99392.22;5444265;26;19936;-50
2024/04/11 10:20:10;;;;;;;;;;;;;;;23.54;37.01;99391.25;5439574;26;20008;-49
2024/04/11 10:22:42;;;;;;;;;;;;;;;24.19;37.12;99391.66;5431381;26;20007;-49
2024/04/11 10:25:09;;;;;;;;;;;;;;;24.50;35.78;99387.91;5440234;26;19940;-49
2024/04/11 10:27:37;;;;;;;;;;;;;;;24.85;35.51;99394.38;5440577;26;19975;-50
2024/04/11 10:30:05;;;;;;;;;;;;;;;23.99;35.46;99400.56;5439954;26;20003;-48
2024/04/11 10:32:35;;;;;;;;;;;;;;;25.90;34.34;99402.16;5437467;26;20024;-49
2024/04/11 10:35:02;;;;;;;;;;;;;;;24.12;34.50;99388.69;5438184;26;19964;-51
2024/04/11 10:37:29;;;;;;;;;;;;;;;24.00;34.20;99391.59;5441325;26;19960;-49
2024/04/11 10:39:58;;;;;;;;;;;;;;;25.24;34.44;99393.38;5444834;26;20359;-49
2024/04/11 10:43:11;;;;;;;;;;;;;;;26.83;34.09;99392.84;5444668;26;19958;-49
2024/04/11 10:45:24;;;;;;;;;;;;;;;26.87;31.63;99400.38;5448085;26;20341;-49
2024/04/11 10:47:52;;;;;;;;;;;;;;;27.27;30.59;99397.25;5441541;26;19959;-48
2024/04/11 10:50:17;;;;;;;;;;;;;;;27.11;30.58;99391.75;5437903;26;20003;-50
2024/04/11 10:52:47;;;;;;;;;;;;;;;26.97;31.75;99400.31;5448269;26;20690;-50
2024/04/11 10:55:28;;;;;;;;;;;;;;;27.13;30.18;99395.09;5437288;26;19935;-49
2024/04/11 10:58:09;;;;;;;;;;;;;;;27.20;31.12;99399.69;5426162;26;20381;-50
2024/04/11 11:03:40;;;;;;;;;;;;;;;27.39;31.25;99393.31;5437469;26;19995;-49
2024/04/11 11:06:24;;;;;;;;;;;;;;;27.14;31.55;99396.78;5448956;26;20011;-49
2024/04/11 11:08:54;;;;;;;;;;;;;;;27.95;31.97;99396.31;5436358;26;19962;-48
2024/04/11 11:11:21;;;;;;;;;;;;;;;26.24;31.62;99393.41;5443307;26;19929;-48
2024/04/11 11:13:47;;;;;;;;;;;;;;;25.39;31.75;99388.44;5442946;26;19963;-50
2024/04/11 11:16:13;;;;;;;;;;;;;;;26.09;32.48;99386.03;5440287;26;20340;-48
2024/04/11 11:18:43;;;;;;;;;;;;;;;25.20;32.23;99375.13;5449894;26;20051;-48
2024/04/11 11:21:13;;;;;;;;;;;;;;;25.24;32.75;99377.38;5446731;26;19992;-48
2024/04/11 11:23:38;;;;;;;;;;;;;;;25.87;32.19;99375.75;5441527;26;19932;-48
2024/04/11 11:26:06;;;;;;;;;;;;;;;26.37;32.88;99375.19;5434642;26;19994;-50
2024/04/11 11:28:33;;;;;;;;;;;;;;;26.52;32.70;99372.84;5448487;26;19990;-49
2024/04/11 11:31:00;;;;;;;;;;;;;;;27.27;32.43;99371.31;5437949;26;20267;-49
2024/04/11 11:33:28;;;;;;;;;;;;;;;27.24;32.57;99363.63;5443298;26;19956;-50
2024/04/11 11:35:54;;;;;;;;;;;;;;;26.31;32.16;99364.25;5436875;26;19963;-49
2024/04/11 11:38:19;;;;;;;;;;;;;;;25.24;32.59;99363.19;5440891;26;19936;-49
2024/04/11 11:40:54;;;;;;;;;;;;;;;25.59;32.46;99356.19;5433638;26;20097;-49
2024/04/11 11:43:20;;;;;;;;;;;;;;;25.21;32.75;99352.81;5435703;26;19929;-51
2024/04/11 11:48:31;;;;;;;;;;;;;;;25.13;33.14;99358.03;5442529;26;20410;-49
2024/04/11 11:51:00;;;;;;;;;;;;;;;25.21;33.94;99355.47;5468008;26;20261;-49
2024/04/11 11:53:32;;;;;;;;;;;;;;;27.23;32.37;99353.06;5436330;26;20000;-49
2024/04/11 11:55:57;;;;;;;;;;;;;;;24.59;32.86;99347.16;5439331;26;20002;-49
2024/04/11 11:58:23;;;;;;;;;;;;;;;24.84;33.51;99347.41;5435302;26;20011;-49
2024/04/11 12:00:59;;;;;;;;;;;;;;;24.60;34.04;99343.50;5429571;26;19961;-48
2024/04/11 12:03:31;;;;;;;;;;;;;;;24.46;33.86;99341.25;5438786;26;20014;-50
2024/04/11 12:05:58;;;;;;;;;;;;;;;26.12;33.62;99340.38;5439014;26;19936;-50
2024/04/11 12:08:24;;;;;;;;;;;;;;;26.72;32.97;99342.31;5427291;26;19929;-49
2024/04/11 12:13:42;;;;;;;;;;;;;;;25.42;33.03;99333.00;5439714;26;20010;-50
2024/04/11 12:16:07;;;;;;;;;;;;;;;24.93;34.15;99330.56;5439060;26;20348;-51
2024/04/11 12:18:32;;;;;;;;;;;;;;;25.54;34.50;99336.31;5437757;26;19972;-49
2024/04/11 12:20:58;;;;;;;;;;;;;;;26.08;33.20;99326.50;5432790;26;19990;-50
2024/04/11 12:23:23;;;;;;;;;;;;;;;25.77;32.75;99321.56;5440568;26;19940;-50
2024/04/11 12:25:52;;;;;;;;;;;;;;;25.54;33.33;99322.97;5442244;26;20251;-49
2024/04/11 12:28:21;;;;;;;;;;;;;;;25.99;33.47;99322.03;5432921;26;19929;-50
2024/04/11 12:30:50;;;;;;;;;;;;;;;26.38;33.20;99318.09;5445627;26;19965;-50
2024/04/11 12:33:16;;;;;;;;;;;;;;;25.42;33.43;99314.31;5441429;26;19929;-49
2024/04/11 12:35:45;;;;;;;;;;;;;;;25.89;34.86;99315.94;5439635;26;19928;-49
2024/04/11 12:38:13;;;;;;;;;;;;;;;26.14;33.96;99319.69;5440991;26;19969;-49
2024/04/11 12:40:39;;;;;;;;;;;;;;;27.23;33.78;99315.63;5445538;26;19993;-49
2024/04/11 12:43:05;;;;;;;;;;;;;;;26.58;33.35;99308.16;5448359;26;19960;-49
2024/04/11 12:45:31;;;;;;;;;;;;;;;27.39;33.10;99315.75;5438571;26;20240;-49
2024/04/11 12:48:04;;;;;;;;;;;;;;;27.49;32.95;99306.59;5438592;26;19979;-50
2024/04/11 12:50:30;;;;;;;;;;;;;;;26.72;33.10;99313.75;5435407;26;19974;-50
2024/04/11 12:52:56;;;;;;;;;;;;;;;27.21;33.48;99306.94;5444076;26;20373;-51
2024/04/11 12:55:25;;;;;;;;;;;;;;;27.22;32.90;99308.59;5433794;26;19929;-50